sensor_id;sensor_type;location;lat;lon;timestamp;temperature;humidity
17565;DHT22;62994;52.126;5.596;2024-02-23T00:01:53;7.20;99.90
17565;DHT22;62994;52.126;5.596;2024-02-23T00:04:20;7.20;99.90
17565;DHT22;62994;52.126;5.596;2024-02-23T00:06:47;7.30;99.90
17565;DHT22;62994;52.126;5.596;2024-02-23T00:09:15;7.30;99.90
17565;DHT22;62994;52.126;5.596;2024-02-23T00:11:42;7.30;99.90
17565;DHT22;62994;52.126;5.596;2024-02-23T00:14:10;7.30;99.90
17565;DHT22;62994;52.126;5.596;2024-02-23T00:16:38;7.40;99.90
17565;DHT22;62994;52.126;5.596;2024-02-23T00:19:07;7.40;99.90
17565;DHT22;62994;52.126;5.596;2024-02-23T00:21:34;7.40;99.90
17565;DHT22;62994;52.126;5.596;2024-02-23T00:24:02;7.40;99.90
17565;DHT22;62994;52.126;5.596;2024-02-23T00:26:30;7.40;99.90
17565;DHT22;62994;52.126;5.596;2024-02-23T00:28:57;7.40;99.90
17565;DHT22;62994;52.126;5.596;2024-02-23T00:31:24;7.50;99.90
17565;DHT22;62994;52.126;5.596;2024-02-23T00:33:51;7.40;99.90
17565;DHT22;62994;52.126;5.596;2024-02-23T00:36:18;7.40;99.90
17565;DHT22;62994;52.126;5.596;2024-02-23T00:38:45;7.40;99.90
17565;DHT22;62994;52.126;5.596;2024-02-23T00:41:12;7.40;99.90
17565;DHT22;62994;52.126;5.596;2024-02-23T00:43:44;7.50;99.90
17565;DHT22;62994;52.126;5.596;2024-02-23T00:46:13;7.50;99.90
17565;DHT22;62994;52.126;5.596;2024-02-23T00:48:40;7.50;99.90
17565;DHT22;62994;52.126;5.596;2024-02-23T00:51:07;7.50;99.90
17565;DHT22;62994;52.126;5.596;2024-02-23T00:53:34;7.40;99.90
17565;DHT22;62994;52.126;5.596;2024-02-23T00:56:01;7.30;99.90
17565;DHT22;62994;52.126;5.596;2024-02-23T00:58:28;7.40;99.90
17565;DHT22;62994;52.126;5.596;2024-02-23T01:00:56;7.40;99.90
17565;DHT22;62994;52.126;5.596;2024-02-23T01:03:23;7.30;99.90
17565;DHT22;62994;52.126;5.596;2024-02-23T01:05:50;7.30;99.90
17565;DHT22;62994;52.126;5.596;2024-02-23T01:08:17;7.30;99.90
17565;DHT22;62994;52.126;5.596;2024-02-23T01:10:44;7.20;99.90
17565;DHT22;62994;52.126;5.596;2024-02-23T01:13:11;7.20;99.90
17565;DHT22;62994;52.126;5.596;2024-02-23T01:15:39;7.20;99.90
17565;DHT22;62994;52.126;5.596;2024-02-23T01:18:07;7.20;99.90
17565;DHT22;62994;52.126;5.596;2024-02-23T01:20:34;7.20;99.90
17565;DHT22;62994;52.126;5.596;2024-02-23T01:23:03;7.10;99.90
17565;DHT22;62994;52.126;5.596;2024-02-23T01:25:30;7.00;99.90
17565;DHT22;62994;52.126;5.596;2024-02-23T01:27:57;7.00;99.90
17565;DHT22;62994;52.126;5.596;2024-02-23T01:30:24;6.90;99.90
17565;DHT22;62994;52.126;5.596;2024-02-23T01:32:51;6.80;99.90
17565;DHT22;62994;52.126;5.596;2024-02-23T01:35:19;6.80;99.90
17565;DHT22;62994;52.126;5.596;2024-02-23T01:37:46;6.80;99.90
17565;DHT22;62994;52.126;5.596;2024-02-23T01:40:13;6.90;99.90
17565;DHT22;62994;52.126;5.596;2024-02-23T01:42:40;6.90;99.90
17565;DHT22;62994;52.126;5.596;2024-02-23T01:45:07;6.80;99.90
17565;DHT22;62994;52.126;5.596;2024-02-23T01:47:34;6.80;99.90
17565;DHT22;62994;52.126;5.596;2024-02-23T01:50:02;6.80;99.90
17565;DHT22;62994;52.126;5.596;2024-02-23T01:52:31;6.90;99.90
17565;DHT22;62994;52.126;5.596;2024-02-23T01:54:58;6.90;99.90
17565;DHT22;62994;52.126;5.596;2024-02-23T01:57:26;6.90;99.90
17565;DHT22;62994;52.126;5.596;2024-02-23T01:59:54;6.90;99.90
17565;DHT22;62994;52.126;5.596;2024-02-23T02:02:21;6.80;99.90
17565;DHT22;62994;52.126;5.596;2024-02-23T02:04:48;6.90;99.90
17565;DHT22;62994;52.126;5.596;2024-02-23T02:07:15;6.80;99.90
17565;DHT22;62994;52.126;5.596;2024-02-23T02:09:45;6.80;99.90
17565;DHT22;62994;52.126;5.596;2024-02-23T02:12:12;6.80;99.90
17565;DHT22;62994;52.126;5.596;2024-02-23T02:14:39;6.70;99.90
17565;DHT22;62994;52.126;5.596;2024-02-23T02:17:06;6.70;99.90
17565;DHT22;62994;52.126;5.596;2024-02-23T02:19:32;6.80;99.90
17565;DHT22;62994;52.126;5.596;2024-02-23T02:22:00;6.80;99.90
17565;DHT22;62994;52.126;5.596;2024-02-23T02:24:27;6.80;99.90
17565;DHT22;62994;52.126;5.596;2024-02-23T02:26:55;6.70;99.90
17565;DHT22;62994;52.126;5.596;2024-02-23T02:29:22;6.70;99.90
17565;DHT22;62994;52.126;5.596;2024-02-23T02:31:49;6.70;99.90
17565;DHT22;62994;52.126;5.596;2024-02-23T02:34:16;6.70;99.90
17565;DHT22;62994;52.126;5.596;2024-02-23T02:36:44;6.60;99.90
17565;DHT22;62994;52.126;5.596;2024-02-23T02:39:29;6.70;99.90
17565;DHT22;62994;52.126;5.596;2024-02-23T02:41:58;6.60;99.90
17565;DHT22;62994;52.126;5.596;2024-02-23T02:44:27;6.60;99.90
17565;DHT22;62994;52.126;5.596;2024-02-23T02:46:56;6.60;99.90
17565;DHT22;62994;52.126;5.596;2024-02-23T02:49:28;6.50;99.90
17565;DHT22;62994;52.126;5.596;2024-02-23T02:51:59;6.50;99.90
17565;DHT22;62994;52.126;5.596;2024-02-23T02:54:26;6.40;99.90
17565;DHT22;62994;52.126;5.596;2024-02-23T02:56:53;6.50;99.90
17565;DHT22;62994;52.126;5.596;2024-02-23T02:59:22;6.40;99.90
17565;DHT22;62994;52.126;5.596;2024-02-23T03:01:50;6.40;99.90
17565;DHT22;62994;52.126;5.596;2024-02-23T03:04:16;6.40;99.90
17565;DHT22;62994;52.126;5.596;2024-02-23T03:06:43;6.40;99.90
17565;DHT22;62994;52.126;5.596;2024-02-23T03:09:11;6.40;99.90
17565;DHT22;62994;52.126;5.596;2024-02-23T03:11:38;6.40;99.90
17565;DHT22;62994;52.126;5.596;2024-02-23T03:14:04;6.40;99.90
17565;DHT22;62994;52.126;5.596;2024-02-23T03:16:33;6.40;99.90
17565;DHT22;62994;52.126;5.596;2024-02-23T03:19:01;6.40;99.90
17565;DHT22;62994;52.126;5.596;2024-02-23T03:21:29;6.30;99.90
17565;DHT22;62994;52.126;5.596;2024-02-23T03:23:56;6.40;99.90
17565;DHT22;62994;52.126;5.596;2024-02-23T03:26:22;6.40;99.90
17565;DHT22;62994;52.126;5.596;2024-02-23T03:28:49;6.40;99.90
17565;DHT22;62994;52.126;5.596;2024-02-23T03:31:16;6.40;99.90
17565;DHT22;62994;52.126;5.596;2024-02-23T03:33:44;6.40;99.90
17565;DHT22;62994;52.126;5.596;2024-02-23T03:36:11;6.40;99.90
17565;DHT22;62994;52.126;5.596;2024-02-23T03:38:38;6.30;99.90
17565;DHT22;62994;52.126;5.596;2024-02-23T03:41:05;6.40;99.90
17565;DHT22;62994;52.126;5.596;2024-02-23T03:43:32;6.40;99.90
17565;DHT22;62994;52.126;5.596;2024-02-23T03:46:00;6.30;99.90
17565;DHT22;62994;52.126;5.596;2024-02-23T03:48:27;6.40;99.90
17565;DHT22;62994;52.126;5.596;2024-02-23T03:50:55;6.40;99.90
17565;DHT22;62994;52.126;5.596;2024-02-23T03:53:22;6.40;99.90
17565;DHT22;62994;52.126;5.596;2024-02-23T03:55:49;6.30;99.90
17565;DHT22;62994;52.126;5.596;2024-02-23T03:58:16;6.30;99.90
17565;DHT22;62994;52.126;5.596;2024-02-23T04:00:43;6.30;99.90
17565;DHT22;62994;52.126;5.596;2024-02-23T04:03:10;6.30;99.90
17565;DHT22;62994;52.126;5.596;2024-02-23T04:05:37;6.30;99.90
17565;DHT22;62994;52.126;5.596;2024-02-23T04:08:06;6.20;99.90
17565;DHT22;62994;52.126;5.596;2024-02-23T04:10:33;6.20;99.90
17565;DHT22;62994;52.126;5.596;2024-02-23T04:13:00;6.20;99.90
17565;DHT22;62994;52.126;5.596;2024-02-23T04:15:27;6.20;99.90
17565;DHT22;62994;52.126;5.596;2024-02-23T04:17:54;6.20;99.90
17565;DHT22;62994;52.126;5.596;2024-02-23T04:20:21;6.20;99.90
17565;DHT22;62994;52.126;5.596;2024-02-23T04:22:48;6.20;99.90
17565;DHT22;62994;52.126;5.596;2024-02-23T04:25:16;6.30;99.90
17565;DHT22;62994;52.126;5.596;2024-02-23T04:27:43;6.20;99.90
17565;DHT22;62994;52.126;5.596;2024-02-23T04:30:11;6.20;99.90
17565;DHT22;62994;52.126;5.596;2024-02-23T04:32:39;6.10;99.90
17565;DHT22;62994;52.126;5.596;2024-02-23T04:35:11;6.20;99.90
17565;DHT22;62994;52.126;5.596;2024-02-23T04:37:38;6.10;99.90
17565;DHT22;62994;52.126;5.596;2024-02-23T04:40:06;6.20;99.90
17565;DHT22;62994;52.126;5.596;2024-02-23T04:42:35;6.20;99.90
17565;DHT22;62994;52.126;5.596;2024-02-23T04:45:02;6.20;99.90
17565;DHT22;62994;52.126;5.596;2024-02-23T04:47:29;6.20;99.90
17565;DHT22;62994;52.126;5.596;2024-02-23T04:49:56;6.20;99.90
17565;DHT22;62994;52.126;5.596;2024-02-23T04:52:23;6.20;99.90
17565;DHT22;62994;52.126;5.596;2024-02-23T04:54:50;6.20;99.90
17565;DHT22;62994;52.126;5.596;2024-02-23T04:57:17;6.10;99.90
17565;DHT22;62994;52.126;5.596;2024-02-23T04:59:45;6.10;99.90
17565;DHT22;62994;52.126;5.596;2024-02-23T05:02:12;6.00;99.90
17565;DHT22;62994;52.126;5.596;2024-02-23T05:04:40;6.10;99.90
17565;DHT22;62994;52.126;5.596;2024-02-23T05:07:07;6.20;99.90
17565;DHT22;62994;52.126;5.596;2024-02-23T05:09:34;6.10;99.90
17565;DHT22;62994;52.126;5.596;2024-02-23T05:12:01;6.10;99.90
17565;DHT22;62994;52.126;5.596;2024-02-23T05:14:28;6.20;99.90
17565;DHT22;62994;52.126;5.596;2024-02-23T05:16:56;6.20;99.90
17565;DHT22;62994;52.126;5.596;2024-02-23T05:19:23;6.10;99.90
17565;DHT22;62994;52.126;5.596;2024-02-23T05:21:55;6.20;99.90
17565;DHT22;62994;52.126;5.596;2024-02-23T05:24:22;6.20;99.90
17565;DHT22;62994;52.126;5.596;2024-02-23T05:26:48;6.30;99.90
17565;DHT22;62994;52.126;5.596;2024-02-23T05:29:15;6.30;99.90
17565;DHT22;62994;52.126;5.596;2024-02-23T05:31:47;6.30;99.90
17565;DHT22;62994;52.126;5.596;2024-02-23T05:34:16;6.30;99.90
17565;DHT22;62994;52.126;5.596;2024-02-23T05:36:44;6.30;99.90
17565;DHT22;62994;52.126;5.596;2024-02-23T05:39:11;6.40;99.90
17565;DHT22;62994;52.126;5.596;2024-02-23T05:41:44;6.30;99.90
17565;DHT22;62994;52.126;5.596;2024-02-23T05:44:11;6.30;99.90
17565;DHT22;62994;52.126;5.596;2024-02-23T05:46:43;6.30;99.90
17565;DHT22;62994;52.126;5.596;2024-02-23T05:49:10;6.30;99.90
17565;DHT22;62994;52.126;5.596;2024-02-23T05:51:39;6.30;99.90
17565;DHT22;62994;52.126;5.596;2024-02-23T05:54:05;6.40;99.90
17565;DHT22;62994;52.126;5.596;2024-02-23T05:56:32;6.40;99.90
17565;DHT22;62994;52.126;5.596;2024-02-23T05:58:59;6.40;99.90
17565;DHT22;62994;52.126;5.596;2024-02-23T06:01:26;6.40;99.90
17565;DHT22;62994;52.126;5.596;2024-02-23T06:03:53;6.40;99.90
17565;DHT22;62994;52.126;5.596;2024-02-23T06:06:20;6.40;99.90
17565;DHT22;62994;52.126;5.596;2024-02-23T06:08:49;6.40;99.90
17565;DHT22;62994;52.126;5.596;2024-02-23T06:11:16;6.40;99.90
17565;DHT22;62994;52.126;5.596;2024-02-23T06:13:43;6.40;99.90
17565;DHT22;62994;52.126;5.596;2024-02-23T06:16:10;6.40;99.90
17565;DHT22;62994;52.126;5.596;2024-02-23T06:18:41;6.40;99.90
17565;DHT22;62994;52.126;5.596;2024-02-23T06:21:12;6.50;99.90
17565;DHT22;62994;52.126;5.596;2024-02-23T06:23:39;6.50;99.90
17565;DHT22;62994;52.126;5.596;2024-02-23T06:26:07;6.50;99.90
17565;DHT22;62994;52.126;5.596;2024-02-23T06:28:34;6.50;99.90
17565;DHT22;62994;52.126;5.596;2024-02-23T06:31:03;6.50;99.90
17565;DHT22;62994;52.126;5.596;2024-02-23T06:33:30;6.50;99.90
17565;DHT22;62994;52.126;5.596;2024-02-23T06:35:57;6.60;99.90
17565;DHT22;62994;52.126;5.596;2024-02-23T06:38:24;6.60;99.90
17565;DHT22;62994;52.126;5.596;2024-02-23T06:40:51;6.60;99.90
17565;DHT22;62994;52.126;5.596;2024-02-23T06:43:20;6.60;99.90
17565;DHT22;62994;52.126;5.596;2024-02-23T06:45:47;6.60;99.90
17565;DHT22;62994;52.126;5.596;2024-02-23T06:48:14;6.60;99.90
17565;DHT22;62994;52.126;5.596;2024-02-23T06:50:40;6.60;99.90
17565;DHT22;62994;52.126;5.596;2024-02-23T06:53:07;6.60;99.90
17565;DHT22;62994;52.126;5.596;2024-02-23T06:55:34;6.70;99.90
17565;DHT22;62994;52.126;5.596;2024-02-23T06:58:02;6.70;99.90
17565;DHT22;62994;52.126;5.596;2024-02-23T07:00:31;6.70;99.90
17565;DHT22;62994;52.126;5.596;2024-02-23T07:02:58;6.70;99.90
17565;DHT22;62994;52.126;5.596;2024-02-23T07:05:29;6.70;99.90
17565;DHT22;62994;52.126;5.596;2024-02-23T07:07:57;6.70;99.90
17565;DHT22;62994;52.126;5.596;2024-02-23T07:10:24;6.70;99.90
17565;DHT22;62994;52.126;5.596;2024-02-23T07:12:54;6.70;99.90
17565;DHT22;62994;52.126;5.596;2024-02-23T07:15:22;6.70;99.90
17565;DHT22;62994;52.126;5.596;2024-02-23T07:17:51;6.70;99.90
17565;DHT22;62994;52.126;5.596;2024-02-23T07:20:18;6.80;99.90
17565;DHT22;62994;52.126;5.596;2024-02-23T07:22:46;6.70;99.90
17565;DHT22;62994;52.126;5.596;2024-02-23T07:25:18;6.80;99.90
17565;DHT22;62994;52.126;5.596;2024-02-23T07:27:46;6.80;99.90
17565;DHT22;62994;52.126;5.596;2024-02-23T07:30:15;6.80;99.90
17565;DHT22;62994;52.126;5.596;2024-02-23T07:32:42;6.80;99.90
17565;DHT22;62994;52.126;5.596;2024-02-23T07:35:11;6.80;99.90
17565;DHT22;62994;52.126;5.596;2024-02-23T07:37:38;6.90;99.90
17565;DHT22;62994;52.126;5.596;2024-02-23T07:40:06;6.90;99.90
17565;DHT22;62994;52.126;5.596;2024-02-23T07:42:36;6.90;99.90
17565;DHT22;62994;52.126;5.596;2024-02-23T07:45:03;6.90;99.90
17565;DHT22;62994;52.126;5.596;2024-02-23T07:47:31;6.90;99.90
17565;DHT22;62994;52.126;5.596;2024-02-23T07:49:58;6.90;99.90
17565;DHT22;62994;52.126;5.596;2024-02-23T07:52:30;6.90;99.90
17565;DHT22;62994;52.126;5.596;2024-02-23T07:54:57;6.90;99.90
17565;DHT22;62994;52.126;5.596;2024-02-23T07:57:25;6.90;99.90
17565;DHT22;62994;52.126;5.596;2024-02-23T07:59:52;7.00;99.90
17565;DHT22;62994;52.126;5.596;2024-02-23T08:02:19;7.00;99.90
17565;DHT22;62994;52.126;5.596;2024-02-23T08:04:46;7.00;99.90
17565;DHT22;62994;52.126;5.596;2024-02-23T08:07:15;7.00;99.90
17565;DHT22;62994;52.126;5.596;2024-02-23T08:09:44;7.10;99.90
17565;DHT22;62994;52.126;5.596;2024-02-23T08:12:11;7.10;99.90
17565;DHT22;62994;52.126;5.596;2024-02-23T08:14:39;7.10;99.90
17565;DHT22;62994;52.126;5.596;2024-02-23T08:17:06;7.10;99.90
17565;DHT22;62994;52.126;5.596;2024-02-23T08:19:33;7.10;99.90
17565;DHT22;62994;52.126;5.596;2024-02-23T08:22:06;7.20;99.90
17565;DHT22;62994;52.126;5.596;2024-02-23T08:24:33;7.10;99.90
17565;DHT22;62994;52.126;5.596;2024-02-23T08:27:01;7.20;99.90
17565;DHT22;62994;52.126;5.596;2024-02-23T08:29:28;7.20;99.90
17565;DHT22;62994;52.126;5.596;2024-02-23T08:31:55;7.20;99.90
17565;DHT22;62994;52.126;5.596;2024-02-23T08:34:22;7.20;99.90
17565;DHT22;62994;52.126;5.596;2024-02-23T08:36:50;7.20;99.90
17565;DHT22;62994;52.126;5.596;2024-02-23T08:39:17;7.20;99.90
17565;DHT22;62994;52.126;5.596;2024-02-23T08:41:44;7.20;99.90
17565;DHT22;62994;52.126;5.596;2024-02-23T08:44:12;7.30;99.90
17565;DHT22;62994;52.126;5.596;2024-02-23T08:46:39;7.30;99.90
17565;DHT22;62994;52.126;5.596;2024-02-23T08:49:06;7.30;99.90
17565;DHT22;62994;52.126;5.596;2024-02-23T08:51:38;7.30;99.90
17565;DHT22;62994;52.126;5.596;2024-02-23T08:54:06;7.30;99.90
17565;DHT22;62994;52.126;5.596;2024-02-23T08:56:37;7.40;99.90
17565;DHT22;62994;52.126;5.596;2024-02-23T08:59:04;7.40;99.90
17565;DHT22;62994;52.126;5.596;2024-02-23T09:01:33;7.40;99.90
17565;DHT22;62994;52.126;5.596;2024-02-23T09:04:00;7.40;99.90
17565;DHT22;62994;52.126;5.596;2024-02-23T09:06:27;7.40;99.90
17565;DHT22;62994;52.126;5.596;2024-02-23T09:08:54;7.40;99.90
17565;DHT22;62994;52.126;5.596;2024-02-23T09:11:22;7.40;99.90
17565;DHT22;62994;52.126;5.596;2024-02-23T09:13:49;7.50;99.90
17565;DHT22;62994;52.126;5.596;2024-02-23T09:16:17;7.40;99.90
17565;DHT22;62994;52.126;5.596;2024-02-23T09:18:47;7.40;99.90
17565;DHT22;62994;52.126;5.596;2024-02-23T09:21:14;7.40;99.90
17565;DHT22;62994;52.126;5.596;2024-02-23T09:23:41;7.50;99.90
17565;DHT22;62994;52.126;5.596;2024-02-23T09:26:09;7.50;99.90
17565;DHT22;62994;52.126;5.596;2024-02-23T09:28:36;7.50;99.90
17565;DHT22;62994;52.126;5.596;2024-02-23T09:31:04;7.50;99.90
17565;DHT22;62994;52.126;5.596;2024-02-23T09:33:31;7.40;99.90
17565;DHT22;62994;52.126;5.596;2024-02-23T09:36:00;7.40;99.90
17565;DHT22;62994;52.126;5.596;2024-02-23T09:38:28;7.40;99.90
17565;DHT22;62994;52.126;5.596;2024-02-23T09:40:58;7.50;99.90
17565;DHT22;62994;52.126;5.596;2024-02-23T09:43:29;7.50;99.90
17565;DHT22;62994;52.126;5.596;2024-02-23T09:45:57;7.50;99.90
17565;DHT22;62994;52.126;5.596;2024-02-23T09:48:26;7.40;99.90
17565;DHT22;62994;52.126;5.596;2024-02-23T09:50:55;7.50;99.90
17565;DHT22;62994;52.126;5.596;2024-02-23T09:53:25;7.50;99.90
17565;DHT22;62994;52.126;5.596;2024-02-23T09:55:53;7.50;99.90
17565;DHT22;62994;52.126;5.596;2024-02-23T09:58:22;7.50;99.90
17565;DHT22;62994;52.126;5.596;2024-02-23T10:00:50;7.60;99.90
17565;DHT22;62994;52.126;5.596;2024-02-23T10:03:17;7.50;99.90
17565;DHT22;62994;52.126;5.596;2024-02-23T10:05:44;7.50;99.90
17565;DHT22;62994;52.126;5.596;2024-02-23T10:08:11;7.50;99.90
17565;DHT22;62994;52.126;5.596;2024-02-23T10:10:45;7.40;99.90
17565;DHT22;62994;52.126;5.596;2024-02-23T10:13:22;7.40;99.90
17565;DHT22;62994;52.126;5.596;2024-02-23T10:15:50;7.40;99.90
17565;DHT22;62994;52.126;5.596;2024-02-23T10:18:17;7.40;99.90
17565;DHT22;62994;52.126;5.596;2024-02-23T10:20:44;7.40;99.90
17565;DHT22;62994;52.126;5.596;2024-02-23T10:23:14;7.40;99.90
17565;DHT22;62994;52.126;5.596;2024-02-23T10:25:42;7.40;99.90
17565;DHT22;62994;52.126;5.596;2024-02-23T10:28:09;7.50;99.90
17565;DHT22;62994;52.126;5.596;2024-02-23T10:30:37;7.40;99.90
17565;DHT22;62994;52.126;5.596;2024-02-23T10:33:05;7.50;99.90
17565;DHT22;62994;52.126;5.596;2024-02-23T10:35:33;7.50;99.90
17565;DHT22;62994;52.126;5.596;2024-02-23T10:38:08;7.50;99.90
17565;DHT22;62994;52.126;5.596;2024-02-23T10:40:39;7.60;99.90
17565;DHT22;62994;52.126;5.596;2024-02-23T10:43:12;7.60;99.90
17565;DHT22;62994;52.126;5.596;2024-02-23T10:45:43;7.70;99.90
17565;DHT22;62994;52.126;5.596;2024-02-23T10:48:11;7.70;99.90
17565;DHT22;62994;52.126;5.596;2024-02-23T10:50:41;7.70;99.90
17565;DHT22;62994;52.126;5.596;2024-02-23T10:53:10;7.80;99.90
17565;DHT22;62994;52.126;5.596;2024-02-23T10:55:38;7.70;99.90
17565;DHT22;62994;52.126;5.596;2024-02-23T10:58:06;7.80;99.90
17565;DHT22;62994;52.126;5.596;2024-02-23T11:00:38;7.80;99.90
17565;DHT22;62994;52.126;5.596;2024-02-23T11:03:07;7.80;99.90
17565;DHT22;62994;52.126;5.596;2024-02-23T11:05:34;7.70;99.90
17565;DHT22;62994;52.126;5.596;2024-02-23T11:08:01;7.80;99.90
17565;DHT22;62994;52.126;5.596;2024-02-23T11:10:28;7.70;99.90
17565;DHT22;62994;52.126;5.596;2024-02-23T11:12:59;7.70;99.90
17565;DHT22;62994;52.126;5.596;2024-02-23T11:15:27;7.80;99.90
17565;DHT22;62994;52.126;5.596;2024-02-23T11:17:55;7.70;99.90
17565;DHT22;62994;52.126;5.596;2024-02-23T11:20:22;7.80;99.90
17565;DHT22;62994;52.126;5.596;2024-02-23T11:22:52;7.80;99.90
17565;DHT22;62994;52.126;5.596;2024-02-23T11:25:20;7.80;99.90
17565;DHT22;62994;52.126;5.596;2024-02-23T11:27:49;7.80;99.90
17565;DHT22;62994;52.126;5.596;2024-02-23T11:30:17;7.90;99.90
17565;DHT22;62994;52.126;5.596;2024-02-23T11:32:46;7.90;99.90
17565;DHT22;62994;52.126;5.596;2024-02-23T11:35:17;8.00;99.90
17565;DHT22;62994;52.126;5.596;2024-02-23T11:37:49;8.00;99.90
17565;DHT22;62994;52.126;5.596;2024-02-23T11:40:22;8.10;99.90
17565;DHT22;62994;52.126;5.596;2024-02-23T11:42:51;8.10;99.90
17565;DHT22;62994;52.126;5.596;2024-02-23T11:45:18;8.10;99.90
17565;DHT22;62994;52.126;5.596;2024-02-23T11:47:45;8.20;99.90
17565;DHT22;62994;52.126;5.596;2024-02-23T11:50:12;8.30;99.90
17565;DHT22;62994;52.126;5.596;2024-02-23T11:52:42;8.30;99.90
17565;DHT22;62994;52.126;5.596;2024-02-23T11:55:18;8.40;99.90
17565;DHT22;62994;52.126;5.596;2024-02-23T11:57:48;8.40;99.90
17565;DHT22;62994;52.126;5.596;2024-02-23T12:00:15;8.40;99.90
17565;DHT22;62994;52.126;5.596;2024-02-23T12:02:43;8.40;99.90
17565;DHT22;62994;52.126;5.596;2024-02-23T12:05:11;8.50;99.90
17565;DHT22;62994;52.126;5.596;2024-02-23T12:07:38;8.50;99.90
17565;DHT22;62994;52.126;5.596;2024-02-23T12:10:07;8.50;99.90
17565;DHT22;62994;52.126;5.596;2024-02-23T12:12:36;8.60;99.90
17565;DHT22;62994;52.126;5.596;2024-02-23T12:15:04;8.60;99.90
17565;DHT22;62994;52.126;5.596;2024-02-23T12:17:31;8.60;99.90
17565;DHT22;62994;52.126;5.596;2024-02-23T12:19:58;8.60;99.90
17565;DHT22;62994;52.126;5.596;2024-02-23T12:22:25;8.60;99.90
17565;DHT22;62994;52.126;5.596;2024-02-23T12:24:53;8.60;99.90
17565;DHT22;62994;52.126;5.596;2024-02-23T12:27:21;8.60;99.90
17565;DHT22;62994;52.126;5.596;2024-02-23T12:29:52;8.70;99.90
17565;DHT22;62994;52.126;5.596;2024-02-23T12:32:20;8.70;99.90
17565;DHT22;62994;52.126;5.596;2024-02-23T12:34:47;8.70;99.90
17565;DHT22;62994;52.126;5.596;2024-02-23T12:37:15;8.70;99.90
17565;DHT22;62994;52.126;5.596;2024-02-23T12:39:42;8.70;99.90
17565;DHT22;62994;52.126;5.596;2024-02-23T12:42:09;8.80;99.90
17565;DHT22;62994;52.126;5.596;2024-02-23T12:44:38;8.80;99.90
17565;DHT22;62994;52.126;5.596;2024-02-23T12:47:05;8.80;99.90
17565;DHT22;62994;52.126;5.596;2024-02-23T12:49:32;8.80;99.90
17565;DHT22;62994;52.126;5.596;2024-02-23T12:51:59;8.80;99.90
17565;DHT22;62994;52.126;5.596;2024-02-23T12:54:32;8.80;99.90
17565;DHT22;62994;52.126;5.596;2024-02-23T12:56:59;8.80;99.90
17565;DHT22;62994;52.126;5.596;2024-02-23T12:59:26;8.90;99.90
17565;DHT22;62994;52.126;5.596;2024-02-23T13:01:54;8.90;99.90
17565;DHT22;62994;52.126;5.596;2024-02-23T13:04:21;8.90;99.90
17565;DHT22;62994;52.126;5.596;2024-02-23T13:06:48;8.90;99.90
17565;DHT22;62994;52.126;5.596;2024-02-23T13:09:15;9.00;99.90
17565;DHT22;62994;52.126;5.596;2024-02-23T13:11:42;8.90;99.90
17565;DHT22;62994;52.126;5.596;2024-02-23T13:14:09;9.00;99.90
17565;DHT22;62994;52.126;5.596;2024-02-23T13:16:36;9.00;99.90
17565;DHT22;62994;52.126;5.596;2024-02-23T13:19:04;9.00;99.90
17565;DHT22;62994;52.126;5.596;2024-02-23T13:21:31;9.10;99.90
17565;DHT22;62994;52.126;5.596;2024-02-23T13:23:59;9.10;99.90
17565;DHT22;62994;52.126;5.596;2024-02-23T13:26:26;9.10;99.90
17565;DHT22;62994;52.126;5.596;2024-02-23T13:28:53;9.10;99.90
17565;DHT22;62994;52.126;5.596;2024-02-23T13:31:20;9.10;99.90
17565;DHT22;62994;52.126;5.596;2024-02-23T13:33:47;9.10;99.90
17565;DHT22;62994;52.126;5.596;2024-02-23T13:36:15;9.10;99.90
17565;DHT22;62994;52.126;5.596;2024-02-23T13:38:44;9.00;99.90
17565;DHT22;62994;52.126;5.596;2024-02-23T13:41:11;9.10;99.90
17565;DHT22;62994;52.126;5.596;2024-02-23T13:43:39;9.10;99.90
17565;DHT22;62994;52.126;5.596;2024-02-23T13:46:06;9.20;99.90
17565;DHT22;62994;52.126;5.596;2024-02-23T13:48:33;9.20;99.90
17565;DHT22;62994;52.126;5.596;2024-02-23T13:51:00;9.20;99.90
17565;DHT22;62994;52.126;5.596;2024-02-23T13:53:30;9.20;99.90
17565;DHT22;62994;52.126;5.596;2024-02-23T13:55:58;9.20;99.90
17565;DHT22;62994;52.126;5.596;2024-02-23T13:58:26;9.20;99.90
17565;DHT22;62994;52.126;5.596;2024-02-23T14:00:53;9.20;99.90
17565;DHT22;62994;52.126;5.596;2024-02-23T14:03:21;9.20;99.90
17565;DHT22;62994;52.126;5.596;2024-02-23T14:05:49;9.20;99.90
17565;DHT22;62994;52.126;5.596;2024-02-23T14:08:16;9.20;99.90
17565;DHT22;62994;52.126;5.596;2024-02-23T14:10:44;9.20;99.90
17565;DHT22;62994;52.126;5.596;2024-02-23T14:13:11;9.20;99.90
17565;DHT22;62994;52.126;5.596;2024-02-23T14:15:40;9.30;99.90
17565;DHT22;62994;52.126;5.596;2024-02-23T14:18:07;9.30;99.90
17565;DHT22;62994;52.126;5.596;2024-02-23T14:20:34;9.30;99.90
17565;DHT22;62994;52.126;5.596;2024-02-23T14:23:10;9.30;99.90
17565;DHT22;62994;52.126;5.596;2024-02-23T14:25:37;9.30;99.90
17565;DHT22;62994;52.126;5.596;2024-02-23T14:28:05;9.30;99.90
17565;DHT22;62994;52.126;5.596;2024-02-23T14:30:32;9.30;99.90
17565;DHT22;62994;52.126;5.596;2024-02-23T14:33:05;9.30;99.90
17565;DHT22;62994;52.126;5.596;2024-02-23T14:35:32;9.30;99.90
17565;DHT22;62994;52.126;5.596;2024-02-23T14:37:59;9.40;99.90
17565;DHT22;62994;52.126;5.596;2024-02-23T14:40:26;9.40;99.90
17565;DHT22;62994;52.126;5.596;2024-02-23T14:42:53;9.40;99.90
17565;DHT22;62994;52.126;5.596;2024-02-23T14:45:21;9.40;99.90
17565;DHT22;62994;52.126;5.596;2024-02-23T14:47:48;9.50;99.90
17565;DHT22;62994;52.126;5.596;2024-02-23T14:50:16;9.50;99.90
17565;DHT22;62994;52.126;5.596;2024-02-23T14:52:43;9.50;99.90
17565;DHT22;62994;52.126;5.596;2024-02-23T14:55:10;9.50;99.90
17565;DHT22;62994;52.126;5.596;2024-02-23T14:57:37;9.50;99.90
17565;DHT22;62994;52.126;5.596;2024-02-23T15:00:09;9.50;99.90
17565;DHT22;62994;52.126;5.596;2024-02-23T15:02:39;9.60;99.90
17565;DHT22;62994;52.126;5.596;2024-02-23T15:05:06;9.70;99.90
17565;DHT22;62994;52.126;5.596;2024-02-23T15:07:34;9.70;99.90
17565;DHT22;62994;52.126;5.596;2024-02-23T15:10:01;9.70;99.90
17565;DHT22;62994;52.126;5.596;2024-02-23T15:12:30;9.70;99.90
17565;DHT22;62994;52.126;5.596;2024-02-23T15:14:57;9.80;99.90
17565;DHT22;62994;52.126;5.596;2024-02-23T15:17:24;9.80;99.90
17565;DHT22;62994;52.126;5.596;2024-02-23T15:19:53;9.70;99.90
17565;DHT22;62994;52.126;5.596;2024-02-23T15:22:20;9.80;99.90
17565;DHT22;62994;52.126;5.596;2024-02-23T15:24:47;9.80;99.90
17565;DHT22;62994;52.126;5.596;2024-02-23T15:27:15;9.80;99.90
17565;DHT22;62994;52.126;5.596;2024-02-23T15:29:42;9.80;99.90
17565;DHT22;62994;52.126;5.596;2024-02-23T15:32:10;9.70;99.90
17565;DHT22;62994;52.126;5.596;2024-02-23T15:34:37;9.70;99.90
17565;DHT22;62994;52.126;5.596;2024-02-23T15:37:05;9.70;99.90
17565;DHT22;62994;52.126;5.596;2024-02-23T15:39:33;9.70;99.90
17565;DHT22;62994;52.126;5.596;2024-02-23T15:42:00;9.60;99.90
17565;DHT22;62994;52.126;5.596;2024-02-23T15:44:28;9.70;99.90
17565;DHT22;62994;52.126;5.596;2024-02-23T15:46:55;9.60;99.90
17565;DHT22;62994;52.126;5.596;2024-02-23T15:49:21;9.60;99.90